createdAt,value
2023-05-09T00:00:25.242Z,34.80
2023-05-09T00:02:51.833Z,33.60
2023-05-09T00:05:18.294Z,34.30
2023-05-09T00:07:44.726Z,33.90
2023-05-09T00:10:11.255Z,35.30
2023-05-09T00:12:38.019Z,34.00
2023-05-09T00:15:05.481Z,33.80
2023-05-09T00:17:32.047Z,34.90
2023-05-09T00:19:58.774Z,33.30
2023-05-09T00:22:25.177Z,34.30
2023-05-09T00:24:52.141Z,35.20
2023-05-09T00:27:19.166Z,37.90
2023-05-09T00:29:45.639Z,35.00
2023-05-09T00:32:12.453Z,32.50
2023-05-09T00:34:39.116Z,31.60
2023-05-09T00:37:05.566Z,30.20
2023-05-09T00:39:32.122Z,32.30
2023-05-09T00:41:58.669Z,33.70
2023-05-09T00:44:25.134Z,31.60
2023-05-09T00:46:51.675Z,34.20
2023-05-09T00:49:18.121Z,33.70
2023-05-09T00:51:44.821Z,33.70
2023-05-09T00:54:11.363Z,33.90
2023-05-09T00:56:37.979Z,32.70
2023-05-09T00:59:04.526Z,32.20
2023-05-09T01:01:31.033Z,31.60
2023-05-09T01:03:58.338Z,32.20
2023-05-09T01:06:38.857Z,33.80
2023-05-09T01:09:14.381Z,33.60
2023-05-09T01:12:21.694Z,34.20
2023-05-09T01:14:51.217Z,36.20
2023-05-09T01:17:35.130Z,34.70
2023-05-09T01:20:04.971Z,33.60
2023-05-09T01:22:34.069Z,32.20
2023-05-09T01:25:25.363Z,33.30
2023-05-09T01:28:13.236Z,31.40
2023-05-09T01:30:42.441Z,31.90
2023-05-09T01:33:10.755Z,33.20
2023-05-09T01:35:39.137Z,32.50
2023-05-09T01:38:17.451Z,35.50
2023-05-09T01:40:48.880Z,34.70
2023-05-09T01:43:19.433Z,34.00
2023-05-09T01:45:47.620Z,33.30
2023-05-09T01:48:15.608Z,32.60
2023-05-09T01:50:44.410Z,32.40
2023-05-09T01:53:11.606Z,32.70
2023-05-09T01:55:40.679Z,32.00
2023-05-09T01:58:08.628Z,33.60
2023-05-09T02:00:36.664Z,32.90
2023-05-09T02:03:04.831Z,33.80
2023-05-09T02:05:32.445Z,34.60
2023-05-09T02:07:59.495Z,36.70
2023-05-09T02:10:27.962Z,33.30
2023-05-09T02:12:55.594Z,35.00
2023-05-09T02:15:22.850Z,32.50
2023-05-09T02:17:49.403Z,31.50
2023-05-09T02:20:15.877Z,31.50
2023-05-09T02:22:44.249Z,30.40
2023-05-09T02:25:12.511Z,29.70
2023-05-09T02:27:40.305Z,29.10
2023-05-09T02:30:11.311Z,29.90
2023-05-09T02:32:39.974Z,30.70
2023-05-09T02:35:08.739Z,30.20
2023-05-09T02:37:36.835Z,31.50
2023-05-09T02:40:05.365Z,32.30
2023-05-09T02:42:32.118Z,32.10
2023-05-09T02:44:58.558Z,31.40
2023-05-09T02:47:25.031Z,31.50
2023-05-09T02:49:51.695Z,30.70
2023-05-09T02:52:18.300Z,31.90
2023-05-09T02:54:45.262Z,30.90
2023-05-09T02:57:11.811Z,30.50
2023-05-09T02:59:38.562Z,31.90
2023-05-09T03:02:05.084Z,32.10
2023-05-09T03:04:31.649Z,34.00
2023-05-09T03:06:58.088Z,34.10
2023-05-09T03:09:24.511Z,32.80
2023-05-09T03:11:51.369Z,34.00
2023-05-09T03:14:17.951Z,34.70
2023-05-09T03:16:44.366Z,35.80
2023-05-09T03:19:11.090Z,35.40
2023-05-09T03:21:37.508Z,35.20
2023-05-09T03:24:04.358Z,32.70
2023-05-09T03:26:31.074Z,31.80
2023-05-09T03:28:57.647Z,33.80
2023-05-09T03:31:24.101Z,32.10
2023-05-09T03:33:50.690Z,33.30
2023-05-09T03:36:17.238Z,33.00
2023-05-09T03:38:43.705Z,33.40
2023-05-09T03:41:10.552Z,33.70
2023-05-09T03:43:37.088Z,32.90
2023-05-09T03:46:03.504Z,32.30
2023-05-09T03:48:30.015Z,33.50
2023-05-09T03:50:56.586Z,34.80
2023-05-09T03:53:23.480Z,35.40
2023-05-09T03:55:50.451Z,35.90
2023-05-09T03:58:16.897Z,37.70
2023-05-09T04:00:43.412Z,37.10
2023-05-09T04:03:10.121Z,36.80
2023-05-09T04:05:37.141Z,34.00
2023-05-09T04:08:04.640Z,32.70
2023-05-09T04:10:31.542Z,30.10
2023-05-09T04:12:58.204Z,27.60
2023-05-09T04:15:24.817Z,23.80
2023-05-09T04:17:51.413Z,18.30
2023-05-09T04:20:17.980Z,26.50
2023-05-09T04:22:46.693Z,26.00
2023-05-09T04:25:13.798Z,26.40
2023-05-09T04:27:40.493Z,22.80
2023-05-09T04:30:07.826Z,21.40
2023-05-09T04:32:34.315Z,22.80
2023-05-09T04:35:00.801Z,19.80
2023-05-09T04:37:27.232Z,16.70
2023-05-09T04:39:53.699Z,16.00
2023-05-09T04:42:20.097Z,21.00
2023-05-09T04:44:46.833Z,21.50
2023-05-09T04:47:13.296Z,26.30
2023-05-09T04:49:40.210Z,22.10
2023-05-09T04:52:06.603Z,21.10
2023-05-09T04:54:33.118Z,19.70
2023-05-09T04:57:09.979Z,21.60
2023-05-09T04:59:40.899Z,22.90
2023-05-09T05:02:07.377Z,22.80
2023-05-09T05:04:34.064Z,21.60
2023-05-09T05:07:00.647Z,21.70
2023-05-09T05:09:27.161Z,21.50
2023-05-09T05:12:00.782Z,22.50
2023-05-09T05:14:29.511Z,24.90
2023-05-09T05:16:55.956Z,24.00
2023-05-09T05:19:22.480Z,25.10
2023-05-09T05:21:49.177Z,27.10
2023-05-09T05:24:15.645Z,25.00
2023-05-09T05:26:42.246Z,24.20
2023-05-09T05:29:08.697Z,22.10
2023-05-09T05:31:35.309Z,21.30
2023-05-09T05:34:01.888Z,22.50
2023-05-09T05:36:28.329Z,20.90
2023-05-09T05:38:54.747Z,21.70
2023-05-09T05:41:21.182Z,20.80
2023-05-09T05:43:47.660Z,19.10
2023-05-09T05:46:14.257Z,19.00
2023-05-09T05:48:40.851Z,18.50
2023-05-09T05:51:07.650Z,18.80
2023-05-09T05:53:34.306Z,17.10
2023-05-09T05:56:00.777Z,17.50
2023-05-09T05:58:27.484Z,15.80
2023-05-09T06:00:53.962Z,15.80
2023-05-09T06:03:20.474Z,15.20
2023-05-09T06:05:47.754Z,14.30
2023-05-09T06:08:14.401Z,13.90
2023-05-09T06:10:40.949Z,14.00
2023-05-09T06:13:07.453Z,14.30
2023-05-09T06:15:33.961Z,14.20
2023-05-09T06:18:00.510Z,14.80
2023-05-09T06:20:27.140Z,14.50
2023-05-09T06:22:53.641Z,13.60
2023-05-09T06:25:23.544Z,14.50
2023-05-09T06:27:50.228Z,14.30
2023-05-09T06:30:25.641Z,14.00
2023-05-09T06:32:54.472Z,14.30
2023-05-09T06:35:21.363Z,13.00
2023-05-09T06:37:48.883Z,12.40
2023-05-09T06:40:16.520Z,12.60
2023-05-09T06:42:43.220Z,12.20
2023-05-09T06:45:10.447Z,12.80
2023-05-09T06:47:37.055Z,13.80
2023-05-09T06:50:03.937Z,11.90
2023-05-09T06:52:30.587Z,10.80
2023-05-09T06:54:57.185Z,6.40
2023-05-09T06:57:23.949Z,9.40
2023-05-09T06:59:50.431Z,9.40
2023-05-09T07:02:17.026Z,5.90
2023-05-09T07:04:43.448Z,6.00
2023-05-09T07:07:09.922Z,4.50
2023-05-09T07:09:36.424Z,3.80
2023-05-09T07:12:02.963Z,4.20
2023-05-09T07:14:29.498Z,8.60
2023-05-09T07:17:05.199Z,4.80
2023-05-09T07:19:40.781Z,7.10
2023-05-09T07:22:07.346Z,6.70
2023-05-09T07:24:33.791Z,3.40
2023-05-09T07:27:03.271Z,2.70
2023-05-09T07:29:29.764Z,3.00
2023-05-09T07:31:56.737Z,3.00
2023-05-09T07:34:23.256Z,3.10
2023-05-09T07:36:49.731Z,2.90
2023-05-09T07:39:16.225Z,2.90
2023-05-09T07:41:43.236Z,2.70
2023-05-09T07:44:10.014Z,2.80
2023-05-09T07:46:37.214Z,3.00
2023-05-09T07:49:04.077Z,2.90
2023-05-09T07:51:30.531Z,2.80
2023-05-09T07:53:56.925Z,2.80
2023-05-09T07:56:23.578Z,2.80
2023-05-09T07:58:50.088Z,2.50
2023-05-09T08:01:16.900Z,2.50
2023-05-09T08:03:43.394Z,3.00
2023-05-09T08:06:09.948Z,3.40
2023-05-09T08:08:38.829Z,3.00
2023-05-09T08:11:05.588Z,2.50
2023-05-09T08:13:32.218Z,2.50
2023-05-09T08:15:59.017Z,2.40
2023-05-09T08:18:25.492Z,2.70
2023-05-09T08:20:52.068Z,2.70
2023-05-09T08:23:18.613Z,2.70
2023-05-09T08:25:45.078Z,2.20
2023-05-09T08:28:11.542Z,2.70
2023-05-09T08:30:38.072Z,2.60
2023-05-09T08:33:04.624Z,3.00
2023-05-09T08:35:31.100Z,3.50
2023-05-09T08:37:57.519Z,3.30
2023-05-09T08:40:24.017Z,3.50
2023-05-09T08:42:51.222Z,4.20
2023-05-09T08:45:25.532Z,3.80
2023-05-09T08:47:53.292Z,2.70
2023-05-09T08:50:21.371Z,2.40
2023-05-09T08:52:48.168Z,2.40
2023-05-09T08:55:15.225Z,2.70
2023-05-09T08:57:41.969Z,2.30
2023-05-09T09:00:09.727Z,3.00
2023-05-09T09:02:37.253Z,2.80
2023-05-09T09:05:04.194Z,2.90
2023-05-09T09:07:33.887Z,3.10
2023-05-09T09:10:03.206Z,2.40
2023-05-09T09:12:31.279Z,2.10
2023-05-09T09:15:07.374Z,2.60
2023-05-09T09:17:40.794Z,2.10
2023-05-09T09:20:11.254Z,1.80
2023-05-09T09:22:40.870Z,2.20
2023-05-09T09:25:07.493Z,2.10
2023-05-09T09:27:34.027Z,1.80
2023-05-09T09:30:08.090Z,2.40
2023-05-09T09:32:35.936Z,1.80
2023-05-09T09:35:10.661Z,1.80
2023-05-09T09:37:39.524Z,2.20
2023-05-09T09:40:10.521Z,1.80
2023-05-09T09:42:41.614Z,1.90
2023-05-09T09:45:16.944Z,2.20
2023-05-09T09:47:45.421Z,2.30
2023-05-09T09:50:14.513Z,2.60
2023-05-09T09:52:42.998Z,2.10
2023-05-09T09:55:09.626Z,2.00
2023-05-09T09:57:37.511Z,2.30
2023-05-09T10:00:06.085Z,2.30
2023-05-09T10:02:32.988Z,2.00
2023-05-09T10:05:09.069Z,2.30
2023-05-09T10:07:35.837Z,1.90
2023-05-09T10:10:03.139Z,2.30
2023-05-09T10:12:29.600Z,2.00
2023-05-09T10:14:56.499Z,2.30
2023-05-09T10:17:23.864Z,2.40
2023-05-09T10:19:51.334Z,2.20
2023-05-09T10:22:18.622Z,2.10
2023-05-09T10:24:57.566Z,2.10
2023-05-09T10:27:28.715Z,2.10
2023-05-09T10:30:08.656Z,1.90
2023-05-09T10:32:58.537Z,1.70
2023-05-09T10:35:29.894Z,2.10
2023-05-09T10:37:56.730Z,2.40
2023-05-09T10:40:23.386Z,1.80
2023-05-09T10:42:50.215Z,1.90
2023-05-09T10:45:16.947Z,1.70
2023-05-09T10:47:44.455Z,1.50
2023-05-09T10:50:12.597Z,1.70
2023-05-09T10:53:04.064Z,2.00
2023-05-09T10:55:57.546Z,1.70
2023-05-09T10:58:31.983Z,2.00
2023-05-09T11:01:01.129Z,1.70
2023-05-09T11:03:29.147Z,1.90
2023-05-09T11:05:57.642Z,2.00
2023-05-09T11:08:31.324Z,1.50
2023-05-09T11:11:04.141Z,1.90
2023-05-09T11:13:32.556Z,1.70
2023-05-09T11:16:01.835Z,2.10
2023-05-09T11:18:29.220Z,1.90
2023-05-09T11:20:56.746Z,2.00
2023-05-09T11:23:29.850Z,1.80
2023-05-09T11:28:34.127Z,1.90
2023-05-09T11:31:17.977Z,2.00
2023-05-09T11:33:48.862Z,1.90
2023-05-09T11:36:27.598Z,1.70
2023-05-09T11:39:07.915Z,1.80
2023-05-09T11:41:45.914Z,2.10
2023-05-09T11:44:16.842Z,2.10
2023-05-09T11:46:44.252Z,1.70
2023-05-09T11:49:11.996Z,1.90
2023-05-09T11:51:39.088Z,1.70
2023-05-09T11:54:06.941Z,1.80
2023-05-09T11:56:38.584Z,2.20
2023-05-09T11:59:05.499Z,2.20
2023-05-09T12:01:32.054Z,1.80
2023-05-09T12:03:59.014Z,2.00
2023-05-09T12:06:25.832Z,2.00
2023-05-09T12:08:54.811Z,2.50
2023-05-09T12:11:21.509Z,1.90
2023-05-09T12:13:49.430Z,2.00
2023-05-09T12:16:17.282Z,1.80
2023-05-09T12:18:45.392Z,1.90
2023-05-09T12:21:11.869Z,1.60
2023-05-09T12:23:38.314Z,1.80
2023-05-09T12:26:05.026Z,1.60
2023-05-09T12:28:31.642Z,1.60
2023-05-09T12:30:59.064Z,1.70
2023-05-09T12:33:26.482Z,1.50
2023-05-09T12:36:03.929Z,1.90
2023-05-09T12:38:30.646Z,2.30
2023-05-09T12:41:22.419Z,1.80
2023-05-09T12:43:58.320Z,2.50
2023-05-09T12:46:25.003Z,1.90
2023-05-09T12:48:52.056Z,2.10
2023-05-09T12:51:20.414Z,1.80
2023-05-09T12:53:47.165Z,1.80
2023-05-09T12:56:16.621Z,2.00
2023-05-09T12:58:54.653Z,2.00
2023-05-09T13:01:27.029Z,2.40
2023-05-09T13:04:01.710Z,1.90
2023-05-09T13:06:28.174Z,1.80
2023-05-09T13:09:12.901Z,1.90
2023-05-09T13:11:39.413Z,2.00
2023-05-09T13:14:06.222Z,1.90
2023-05-09T13:16:32.795Z,1.50
2023-05-09T13:18:59.416Z,1.60
2023-05-09T13:21:26.093Z,1.50
2023-05-09T13:23:52.658Z,1.90
2023-05-09T13:26:19.291Z,1.80
2023-05-09T13:28:45.736Z,1.80
2023-05-09T13:31:12.262Z,1.80
2023-05-09T13:33:38.824Z,1.60
2023-05-09T13:36:05.614Z,1.50
2023-05-09T13:38:32.168Z,1.60
2023-05-09T13:40:59.013Z,1.70
2023-05-09T13:43:26.497Z,1.70
2023-05-09T13:45:53.089Z,1.80
2023-05-09T13:48:19.662Z,1.90
2023-05-09T13:50:46.605Z,2.40
2023-05-09T13:53:13.367Z,1.90
2023-05-09T13:55:39.789Z,2.00
2023-05-09T13:58:06.255Z,1.40
2023-05-09T14:00:33.422Z,1.60
2023-05-09T14:02:59.951Z,1.70
2023-05-09T14:05:26.769Z,1.80
2023-05-09T14:07:53.475Z,1.90
2023-05-09T14:10:20.032Z,1.90
2023-05-09T14:12:46.681Z,1.50
2023-05-09T14:15:13.554Z,1.80
2023-05-09T14:17:39.995Z,1.90
2023-05-09T14:20:07.245Z,1.70
2023-05-09T14:22:33.795Z,1.80
2023-05-09T14:25:00.199Z,1.90
2023-05-09T14:27:26.663Z,1.80
2023-05-09T14:29:53.129Z,1.60
2023-05-09T14:32:19.607Z,1.60
2023-05-09T14:34:46.188Z,2.20
2023-05-09T14:37:15.607Z,1.70
2023-05-09T14:39:43.758Z,1.70
2023-05-09T14:42:10.418Z,2.10
2023-05-09T14:44:43.206Z,1.90
2023-05-09T14:47:09.968Z,1.90
2023-05-09T14:49:37.321Z,1.70
2023-05-09T14:52:03.883Z,1.80
2023-05-09T14:54:30.346Z,1.70
2023-05-09T14:56:56.780Z,1.40
2023-05-09T14:59:23.349Z,1.50
2023-05-09T15:01:49.758Z,1.70
2023-05-09T15:04:16.406Z,1.70
2023-05-09T15:06:43.062Z,1.60
2023-05-09T15:09:09.485Z,1.90
2023-05-09T15:11:46.760Z,1.50
2023-05-09T15:14:14.726Z,1.70
2023-05-09T15:16:41.516Z,1.60
2023-05-09T15:19:08.430Z,2.00
2023-05-09T15:21:34.996Z,1.90
2023-05-09T15:24:01.631Z,2.50
2023-05-09T15:26:28.060Z,2.20
2023-05-09T15:28:54.630Z,2.10
2023-05-09T15:31:21.065Z,2.00
2023-05-09T15:33:48.187Z,2.60
2023-05-09T15:36:14.665Z,2.10
2023-05-09T15:38:41.079Z,1.70
2023-05-09T15:41:07.538Z,1.60
2023-05-09T15:43:33.980Z,1.80
2023-05-09T15:46:00.766Z,1.70
2023-05-09T15:48:27.319Z,1.70
2023-05-09T15:50:53.763Z,1.80
2023-05-09T15:53:20.253Z,1.80
2023-05-09T15:55:46.736Z,1.80
2023-05-09T15:58:13.493Z,2.20
2023-05-09T16:00:39.923Z,2.00
2023-05-09T16:03:06.379Z,2.40
2023-05-09T16:05:33.143Z,2.30
2023-05-09T16:07:59.859Z,2.40
2023-05-09T16:10:26.380Z,2.90
2023-05-09T16:12:52.920Z,2.40
2023-05-09T16:15:19.532Z,2.50
2023-05-09T16:17:45.968Z,3.00
2023-05-09T16:20:13.291Z,3.10
2023-05-09T16:22:40.632Z,3.40
2023-05-09T16:25:07.675Z,2.90
2023-05-09T16:27:34.351Z,3.20
2023-05-09T16:30:01.135Z,4.60
2023-05-09T16:32:27.783Z,4.10
2023-05-09T16:34:54.234Z,3.60
2023-05-09T16:37:20.913Z,3.10
2023-05-09T16:39:47.366Z,3.20
2023-05-09T16:42:14.145Z,5.20
2023-05-09T16:44:40.563Z,4.50
2023-05-09T16:47:07.264Z,4.20
2023-05-09T16:49:33.890Z,3.90
2023-05-09T16:52:00.319Z,3.20
2023-05-09T16:54:26.902Z,2.80
2023-05-09T16:56:53.432Z,2.80
2023-05-09T16:59:19.877Z,2.30
2023-05-09T17:01:46.523Z,2.20
2023-05-09T17:04:13.398Z,1.80
2023-05-09T17:06:39.937Z,1.90
2023-05-09T17:09:06.403Z,1.60
2023-05-09T17:11:32.922Z,1.80
2023-05-09T17:14:02.386Z,2.10
2023-05-09T17:16:29.353Z,1.90
2023-05-09T17:18:56.083Z,3.00
2023-05-09T17:21:22.472Z,2.80
2023-05-09T17:23:48.963Z,2.30
2023-05-09T17:26:15.644Z,2.80
2023-05-09T17:28:42.415Z,3.00
2023-05-09T17:31:08.894Z,2.80
2023-05-09T17:33:35.505Z,3.00
2023-05-09T17:36:01.945Z,3.60
2023-05-09T17:38:28.502Z,4.00
2023-05-09T17:40:55.049Z,4.70
2023-05-09T17:43:21.742Z,3.80
2023-05-09T17:45:48.216Z,4.70
2023-05-09T17:48:14.751Z,4.40
2023-05-09T17:50:41.267Z,4.60
2023-05-09T17:53:07.896Z,5.00
2023-05-09T17:55:34.341Z,6.80
2023-05-09T17:58:00.897Z,6.70
2023-05-09T18:00:27.393Z,6.70
2023-05-09T18:02:54.057Z,6.80
2023-05-09T18:05:20.630Z,6.70
2023-05-09T18:07:47.122Z,6.60
2023-05-09T18:10:13.898Z,7.10
2023-05-09T18:12:40.590Z,8.30
2023-05-09T18:15:07.890Z,8.40
2023-05-09T18:17:34.338Z,7.90
2023-05-09T18:20:00.767Z,8.90
2023-05-09T18:22:27.165Z,8.80
2023-05-09T18:24:53.616Z,8.80
2023-05-09T18:27:20.041Z,8.00
2023-05-09T18:29:46.872Z,8.10
2023-05-09T18:32:13.638Z,9.50
2023-05-09T18:34:41.117Z,11.00
2023-05-09T18:37:07.594Z,15.00
2023-05-09T18:39:34.036Z,13.70
2023-05-09T18:42:00.435Z,10.80
2023-05-09T18:44:26.840Z,9.90
2023-05-09T18:46:53.371Z,11.50
2023-05-09T18:49:19.990Z,10.20
2023-05-09T18:51:46.901Z,9.00
2023-05-09T18:54:13.417Z,10.30
2023-05-09T18:56:39.862Z,10.70
2023-05-09T18:59:06.263Z,10.60
2023-05-09T19:01:32.773Z,10.30
2023-05-09T19:03:59.370Z,10.30
2023-05-09T19:06:25.803Z,11.50
2023-05-09T19:08:52.236Z,11.40
2023-05-09T19:11:19.022Z,13.10
2023-05-09T19:13:45.614Z,12.70
2023-05-09T19:16:12.321Z,14.10
2023-05-09T19:18:38.874Z,14.10
2023-05-09T19:21:05.352Z,15.70
2023-05-09T19:23:31.973Z,15.30
2023-05-09T19:25:58.625Z,15.00
2023-05-09T19:28:25.125Z,16.10
2023-05-09T19:30:51.779Z,15.50
2023-05-09T19:33:18.216Z,17.50
2023-05-09T19:35:45.181Z,22.80
2023-05-09T19:38:11.944Z,23.30
2023-05-09T19:40:39.506Z,18.60
2023-05-09T19:43:05.947Z,15.80
2023-05-09T19:45:32.466Z,19.10
2023-05-09T19:47:59.528Z,18.60
2023-05-09T19:50:26.201Z,17.40
2023-05-09T19:52:52.727Z,14.40
2023-05-09T19:55:19.201Z,13.00
2023-05-09T19:57:45.726Z,11.50
2023-05-09T20:00:13.034Z,10.50
2023-05-09T20:02:39.803Z,11.00
2023-05-09T20:05:06.922Z,13.20
2023-05-09T20:07:33.464Z,14.30
2023-05-09T20:10:00.014Z,13.70
2023-05-09T20:12:27.967Z,16.00
2023-05-09T20:14:56.940Z,16.90
2023-05-09T20:17:23.879Z,15.80
2023-05-09T20:19:50.506Z,15.00
2023-05-09T20:22:17.168Z,16.10
2023-05-09T20:24:44.027Z,17.70
2023-05-09T20:27:10.612Z,19.90
2023-05-09T20:29:37.157Z,19.20
2023-05-09T20:32:03.798Z,20.30
2023-05-09T20:34:30.545Z,19.20
2023-05-09T20:36:57.291Z,19.50
2023-05-09T20:39:23.857Z,20.10
2023-05-09T20:41:50.708Z,18.80
2023-05-09T20:44:18.130Z,17.90
2023-05-09T20:46:45.611Z,18.90
2023-05-09T20:49:12.176Z,19.90
2023-05-09T20:51:39.011Z,26.60
2023-05-09T20:54:05.599Z,25.90
2023-05-09T20:56:33.587Z,33.50
2023-05-09T20:59:00.107Z,28.90
2023-05-09T21:01:27.104Z,24.20
2023-05-09T21:03:53.624Z,21.50
2023-05-09T21:06:20.481Z,19.50
2023-05-09T21:08:47.042Z,28.50
2023-05-09T21:11:13.790Z,23.90
2023-05-09T21:13:40.483Z,35.90
2023-05-09T21:16:06.991Z,38.90
2023-05-09T21:18:33.600Z,37.20
2023-05-09T21:21:01.690Z,36.50
2023-05-09T21:23:28.782Z,38.00
2023-05-09T21:25:55.308Z,56.50
2023-05-09T21:28:21.835Z,75.70
2023-05-09T21:30:55.006Z,59.10
2023-05-09T21:33:21.661Z,64.00
2023-05-09T21:35:48.134Z,42.70
2023-05-09T21:38:14.586Z,261.10
2023-05-09T21:40:41.201Z,82.80
2023-05-09T21:43:07.994Z,101.20
2023-05-09T21:45:34.484Z,52.10
2023-05-09T21:48:01.167Z,34.30
2023-05-09T21:50:27.806Z,23.90
2023-05-09T21:52:54.258Z,29.00
2023-05-09T21:55:20.811Z,29.80
2023-05-09T21:57:47.368Z,28.80
2023-05-09T22:00:15.410Z,30.00
2023-05-09T22:02:42.246Z,25.00
2023-05-09T22:05:09.868Z,20.50
2023-05-09T22:07:36.643Z,20.60
2023-05-09T22:10:03.934Z,21.00
2023-05-09T22:12:30.749Z,20.30
2023-05-09T22:14:57.291Z,21.30
2023-05-09T22:17:24.301Z,21.80
2023-05-09T22:19:50.918Z,22.10
2023-05-09T22:22:17.596Z,20.00
2023-05-09T22:24:44.127Z,19.30
2023-05-09T22:27:11.400Z,19.20
2023-05-09T22:29:37.944Z,17.90
2023-05-09T22:32:04.950Z,17.70
2023-05-09T22:34:31.483Z,17.60
2023-05-09T22:36:58.378Z,16.10
2023-05-09T22:39:24.950Z,16.00
2023-05-09T22:41:51.398Z,16.60
2023-05-09T22:44:17.952Z,16.60
2023-05-09T22:46:44.799Z,15.90
2023-05-09T22:49:11.249Z,16.30
2023-05-09T22:51:37.800Z,16.30
2023-05-09T22:54:04.528Z,14.90
2023-05-09T22:56:31.031Z,16.00
2023-05-09T22:58:57.566Z,16.50
2023-05-09T23:01:24.402Z,17.60
2023-05-09T23:03:50.944Z,17.60
2023-05-09T23:06:17.419Z,18.10
2023-05-09T23:08:43.954Z,17.90
2023-05-09T23:11:10.402Z,18.60
2023-05-09T23:13:36.850Z,18.60
2023-05-09T23:16:03.900Z,17.10
2023-05-09T23:18:30.599Z,16.80
2023-05-09T23:20:57.016Z,17.90
2023-05-09T23:23:23.774Z,18.70
2023-05-09T23:25:50.232Z,16.80
2023-05-09T23:28:16.767Z,20.20
2023-05-09T23:30:43.233Z,18.60
2023-05-09T23:33:09.649Z,18.70
2023-05-09T23:35:36.141Z,21.00
2023-05-09T23:38:02.695Z,19.50
2023-05-09T23:40:29.568Z,20.10
2023-05-09T23:42:56.023Z,20.00
2023-05-09T23:45:22.856Z,18.90
2023-05-09T23:47:49.400Z,19.00
2023-05-09T23:50:16.193Z,18.60
2023-05-09T23:52:43.140Z,19.20
2023-05-09T23:55:09.633Z,18.10
2023-05-09T23:57:36.110Z,18.00
